Time;durP1;ratioP1;P1;durP2;ratioP2;P2;SDS_P1;SDS_P2;PMS_P1;PMS_P2;Temp;Humidity;BMP_temperature;BMP_pressure;BME280_temperature;BME280_humidity;BME280_pressure;Samples;Min_cycle;Max_cycle;Signal;HPM_P1;HPM_P2
2022/06/13 00:01:38;;;;;;;8.60;5.07;;;;;;;;;;5038763;28;20455;-76
2022/06/13 00:04:07;;;;;;;4.90;4.50;;;;;;;;;;5051202;28;20422;-77
2022/06/13 00:06:35;;;;;;;4.90;4.50;;;;;;;;;;5051003;28;20465;-78
2022/06/13 00:09:02;;;;;;;4.97;4.67;;;;;;;;;;5050653;28;20446;-78
2022/06/13 00:11:29;;;;;;;4.57;4.17;;;;;;;;;;5051082;28;20449;-79
2022/06/13 00:13:57;;;;;;;4.90;4.50;;;;;;;;;;5050709;28;20507;-77
2022/06/13 00:16:24;;;;;;;5.03;4.17;;;;;;;;;;5050796;28;20562;-78
2022/06/13 00:18:52;;;;;;;5.90;5.13;;;;;;;;;;5050950;28;20449;-77
2022/06/13 00:21:21;;;;;;;7.23;4.20;;;;;;;;;;5050447;28;21197;-77
2022/06/13 00:23:49;;;;;;;4.93;4.40;;;;;;;;;;5050271;28;20441;-77
2022/06/13 00:26:16;;;;;;;4.97;4.57;;;;;;;;;;5050805;28;20464;-77
2022/06/13 00:28:43;;;;;;;6.87;4.80;;;;;;;;;;5050906;28;20453;-77
2022/06/13 00:31:10;;;;;;;5.60;5.10;;;;;;;;;;5050813;28;20526;-78
2022/06/13 00:33:37;;;;;;;5.20;4.70;;;;;;;;;;5050038;28;20507;-76
2022/06/13 00:36:06;;;;;;;4.97;4.57;;;;;;;;;;5050046;28;20929;-77
2022/06/13 00:38:34;;;;;;;4.63;4.23;;;;;;;;;;5050374;28;20489;-76
2022/06/13 00:41:01;;;;;;;5.20;4.70;;;;;;;;;;5050494;28;20553;-76
2022/06/13 00:43:29;;;;;;;6.03;4.47;;;;;;;;;;5050123;28;21010;-76
2022/06/13 00:45:56;;;;;;;4.80;4.10;;;;;;;;;;5050567;28;20458;-76
2022/06/13 00:48:27;;;;;;;5.33;4.20;;;;;;;;;;5050405;28;20442;-75
2022/06/13 00:50:56;;;;;;;4.97;4.57;;;;;;;;;;5050476;28;20556;-77
2022/06/13 00:53:25;;;;;;;4.60;4.20;;;;;;;;;;5051227;28;20533;-77
2022/06/13 00:55:56;;;;;;;5.10;4.70;;;;;;;;;;5054499;28;20449;-77
2022/06/13 00:58:23;;;;;;;4.67;4.30;;;;;;;;;;5054610;28;20469;-77
2022/06/13 01:00:51;;;;;;;4.40;4.00;;;;;;;;;;5054747;28;20473;-77
2022/06/13 01:03:19;;;;;;;4.60;4.20;;;;;;;;;;5054482;28;20437;-78
2022/06/13 01:05:49;;;;;;;4.40;4.00;;;;;;;;;;5054666;28;20449;-78
2022/06/13 01:08:17;;;;;;;5.03;4.50;;;;;;;;;;5054505;28;20437;-78
2022/06/13 01:13:40;;;;;;;5.30;4.57;;;;;;;;;;5054128;28;20401;-78
2022/06/13 01:16:18;;;;;;;4.63;4.07;;;;;;;;;;5054551;28;20421;-78
2022/06/13 01:18:55;;;;;;;4.50;4.10;;;;;;;;;;5054240;28;20492;-78
2022/06/13 01:21:27;;;;;;;4.37;4.07;;;;;;;;;;5053973;28;20461;-77
2022/06/13 01:24:07;;;;;;;5.20;4.80;;;;;;;;;;5053561;28;20513;-76
2022/06/13 01:26:49;;;;;;;4.80;4.40;;;;;;;;;;5054070;28;20499;-78
2022/06/13 01:29:41;;;;;;;7.80;4.93;;;;;;;;;;5010639;28;20495;-77
2022/06/13 01:32:15;;;;;;;4.97;4.40;;;;;;;;;;5054106;28;20448;-77
2022/06/13 01:34:48;;;;;;;4.67;4.37;;;;;;;;;;5054383;28;20499;-77
2022/06/13 01:37:20;;;;;;;5.60;5.10;;;;;;;;;;5054121;28;20481;-77
2022/06/13 01:39:54;;;;;;;5.30;4.90;;;;;;;;;;5053794;28;20469;-77
2022/06/13 01:42:27;;;;;;;4.87;4.37;;;;;;;;;;5054947;28;20433;-78
2022/06/13 01:44:59;;;;;;;5.37;4.33;;;;;;;;;;5054066;28;20461;-78
2022/06/13 01:47:31;;;;;;;5.20;4.80;;;;;;;;;;5053508;28;20468;-77
2022/06/13 01:50:01;;;;;;;5.53;5.03;;;;;;;;;;5053935;28;20465;-77
2022/06/13 01:52:31;;;;;;;5.43;4.93;;;;;;;;;;5053791;28;20523;-77
2022/06/13 01:55:00;;;;;;;5.30;4.63;;;;;;;;;;5053359;28;20445;-77
2022/06/13 01:57:32;;;;;;;5.03;4.63;;;;;;;;;;5053142;28;20519;-76
2022/06/13 02:00:05;;;;;;;7.13;4.90;;;;;;;;;;5053341;28;20516;-77
2022/06/13 02:02:36;;;;;;;5.37;5.07;;;;;;;;;;5052862;28;20793;-77
2022/06/13 02:05:06;;;;;;;5.43;4.97;;;;;;;;;;5051827;28;20442;-77
2022/06/13 02:07:39;;;;;;;4.90;4.50;;;;;;;;;;5052662;28;20479;-78
2022/06/13 02:10:07;;;;;;;6.80;4.40;;;;;;;;;;5052905;28;20469;-78
2022/06/13 02:12:36;;;;;;;4.70;4.17;;;;;;;;;;5052696;28;20449;-77
2022/06/13 02:15:05;;;;;;;4.10;3.80;;;;;;;;;;5058188;28;20524;-77
2022/06/13 02:17:35;;;;;;;4.17;3.87;;;;;;;;;;5055929;28;20895;-77
2022/06/13 02:20:06;;;;;;;4.40;4.10;;;;;;;;;;5053369;28;20499;-78
2022/06/13 02:22:37;;;;;;;5.80;4.37;;;;;;;;;;5053132;28;20430;-77
2022/06/13 02:25:05;;;;;;;5.17;4.20;;;;;;;;;;5052840;28;20496;-77
2022/06/13 02:27:34;;;;;;;4.83;4.43;;;;;;;;;;5060145;28;20896;-78
2022/06/13 02:30:04;;;;;;;4.73;4.33;;;;;;;;;;5068742;28;20453;-77
2022/06/13 02:32:33;;;;;;;4.10;3.80;;;;;;;;;;5067278;28;20433;-78
2022/06/13 02:35:03;;;;;;;3.90;3.60;;;;;;;;;;5067691;28;20476;-77
2022/06/13 02:37:32;;;;;;;4.10;3.70;;;;;;;;;;5066943;28;20481;-77
2022/06/13 02:40:02;;;;;;;4.90;3.90;;;;;;;;;;5064246;28;20496;-77
2022/06/13 02:42:32;;;;;;;4.17;3.77;;;;;;;;;;5052464;28;20925;-77
2022/06/13 02:45:01;;;;;;;4.27;3.50;;;;;;;;;;5052272;28;20457;-77
2022/06/13 02:47:31;;;;;;;3.90;3.67;;;;;;;;;;5052249;28;20543;-77
2022/06/13 02:50:01;;;;;;;3.93;3.63;;;;;;;;;;5052506;28;20536;-78
2022/06/13 02:52:32;;;;;;;4.57;3.90;;;;;;;;;;5051849;28;20454;-76
2022/06/13 02:55:01;;;;;;;4.80;3.40;;;;;;;;;;5052490;28;20446;-78
2022/06/13 02:57:43;;;;;;;3.20;3.00;;;;;;;;;;5052444;28;20622;-78
2022/06/13 03:00:19;;;;;;;4.23;3.80;;;;;;;;;;5049208;28;20547;-78
2022/06/13 03:02:50;;;;;;;4.13;3.73;;;;;;;;;;5052047;28;20508;-77
2022/06/13 03:05:26;;;;;;;6.23;3.40;;;;;;;;;;5052638;28;20847;-76
2022/06/13 03:07:58;;;;;;;7.50;3.63;;;;;;;;;;5053129;28;20433;-76
2022/06/13 03:10:30;;;;;;;4.07;3.77;;;;;;;;;;5052647;28;20553;-77
2022/06/13 03:13:00;;;;;;;7.33;3.87;;;;;;;;;;5052430;28;20438;-78
2022/06/13 03:15:30;;;;;;;3.67;3.40;;;;;;;;;;5052557;28;20500;-77
2022/06/13 03:17:59;;;;;;;4.27;3.60;;;;;;;;;;5052656;28;20473;-77
2022/06/13 03:20:28;;;;;;;4.50;3.83;;;;;;;;;;5052707;28;20552;-77
2022/06/13 03:22:59;;;;;;;4.80;3.67;;;;;;;;;;5052283;28;20442;-77
2022/06/13 03:25:29;;;;;;;3.93;3.70;;;;;;;;;;5052062;28;20453;-77
2022/06/13 03:27:58;;;;;;;4.10;3.70;;;;;;;;;;5052097;28;20437;-77
2022/06/13 03:30:27;;;;;;;5.67;3.80;;;;;;;;;;5051845;28;20553;-76
2022/06/13 03:35:42;;;;;;;6.60;3.30;;;;;;;;;;5052106;28;20475;-78
2022/06/13 03:38:14;;;;;;;4.40;3.57;;;;;;;;;;5050933;28;20536;-76
2022/06/13 03:40:42;;;;;;;6.23;3.70;;;;;;;;;;5051300;28;21038;-76
2022/06/13 03:43:11;;;;;;;6.83;3.93;;;;;;;;;;5051400;28;20430;-77
2022/06/13 03:45:40;;;;;;;5.10;3.73;;;;;;;;;;5051038;28;20510;-77
2022/06/13 03:48:09;;;;;;;5.97;4.07;;;;;;;;;;5051533;28;20445;-77
2022/06/13 03:50:40;;;;;;;4.27;3.87;;;;;;;;;;5051469;28;20544;-77
2022/06/13 03:53:10;;;;;;;6.50;3.80;;;;;;;;;;5051697;28;20453;-77
2022/06/13 03:55:41;;;;;;;5.37;3.70;;;;;;;;;;5051697;28;20799;-77
2022/06/13 03:58:12;;;;;;;10.10;3.80;;;;;;;;;;5052074;28;20481;-77
2022/06/13 04:00:42;;;;;;;4.23;3.80;;;;;;;;;;5051474;28;20477;-78
2022/06/13 04:03:09;;;;;;;4.03;3.60;;;;;;;;;;5051203;28;20495;-78
2022/06/13 04:05:38;;;;;;;8.10;4.30;;;;;;;;;;5051262;28;20453;-78
2022/06/13 04:08:06;;;;;;;6.57;3.80;;;;;;;;;;5051423;28;20437;-76
2022/06/13 04:10:38;;;;;;;5.73;3.90;;;;;;;;;;5051458;28;20997;-79
2022/06/13 04:13:29;;;;;;;5.07;3.50;;;;;;;;;;5051185;28;20430;-77
2022/06/13 04:16:00;;;;;;;5.40;3.70;;;;;;;;;;5031040;28;20450;-77
2022/06/13 04:18:36;;;;;;;4.03;3.70;;;;;;;;;;5051179;28;20889;-76
2022/06/13 04:21:08;;;;;;;8.07;3.80;;;;;;;;;;5051238;28;20472;-76
2022/06/13 04:23:37;;;;;;;4.10;3.60;;;;;;;;;;5050703;28;20478;-77
2022/06/13 04:26:09;;;;;;;5.90;3.77;;;;;;;;;;5050845;28;20434;-77
2022/06/13 04:28:39;;;;;;;5.03;3.83;;;;;;;;;;5050171;28;20967;-77
2022/06/13 04:31:09;;;;;;;6.60;4.20;;;;;;;;;;5052995;28;20520;-77
2022/06/13 04:33:39;;;;;;;8.53;5.17;;;;;;;;;;5050826;28;20437;-76
2022/06/13 04:36:07;;;;;;;5.80;3.83;;;;;;;;;;5050964;28;20442;-77
2022/06/13 04:38:35;;;;;;;6.63;4.40;;;;;;;;;;5050434;28;20528;-77
2022/06/13 04:41:04;;;;;;;7.03;4.03;;;;;;;;;;5050772;28;20445;-76
2022/06/13 04:43:35;;;;;;;5.87;4.00;;;;;;;;;;5051038;28;20442;-76
2022/06/13 04:46:04;;;;;;;5.53;4.10;;;;;;;;;;5050481;28;20449;-77
2022/06/13 04:48:33;;;;;;;4.20;3.80;;;;;;;;;;5050391;28;20895;-77
2022/06/13 04:51:02;;;;;;;5.97;3.97;;;;;;;;;;5050566;28;20461;-77
2022/06/13 04:53:32;;;;;;;8.40;4.30;;;;;;;;;;5050614;28;20464;-77
2022/06/13 04:56:00;;;;;;;7.23;4.20;;;;;;;;;;5050889;28;20523;-77
2022/06/13 04:58:28;;;;;;;4.17;3.87;;;;;;;;;;5051215;28;20565;-77
2022/06/13 05:00:57;;;;;;;4.00;3.60;;;;;;;;;;5050740;28;20881;-77
2022/06/13 05:03:26;;;;;;;5.70;4.50;;;;;;;;;;5050728;28;20438;-77
2022/06/13 05:05:57;;;;;;;6.53;3.73;;;;;;;;;;5051910;28;20467;-77
2022/06/13 05:08:25;;;;;;;7.63;5.33;;;;;;;;;;5052074;28;20437;-78
2022/06/13 05:10:54;;;;;;;4.30;3.73;;;;;;;;;;5052422;28;20462;-77
2022/06/13 05:13:23;;;;;;;8.70;4.60;;;;;;;;;;5052196;28;20442;-76
2022/06/13 05:15:54;;;;;;;7.30;4.80;;;;;;;;;;5050275;28;20928;-78
2022/06/13 05:18:32;;;;;;;6.40;4.20;;;;;;;;;;5050694;28;20473;-78
2022/06/13 05:21:08;;;;;;;5.30;4.83;;;;;;;;;;5050099;28;21033;-77
2022/06/13 05:23:43;;;;;;;6.70;3.50;;;;;;;;;;5050070;28;20487;-78
2022/06/13 05:26:10;;;;;;;7.70;4.50;;;;;;;;;;5050321;28;20449;-78
2022/06/13 05:28:38;;;;;;;7.70;4.03;;;;;;;;;;5050171;28;20859;-78
2022/06/13 05:31:08;;;;;;;6.97;3.70;;;;;;;;;;5050170;28;20972;-77
2022/06/13 05:33:37;;;;;;;7.07;4.37;;;;;;;;;;5049977;28;20446;-77
2022/06/13 05:36:07;;;;;;;7.00;3.70;;;;;;;;;;5049587;28;20940;-78
2022/06/13 05:38:38;;;;;;;5.23;4.00;;;;;;;;;;5049752;28;20976;-77
2022/06/13 05:41:05;;;;;;;4.37;3.97;;;;;;;;;;5054534;28;20461;-78
2022/06/13 05:43:32;;;;;;;5.70;3.73;;;;;;;;;;5053388;28;20445;-77
2022/06/13 05:45:59;;;;;;;7.40;4.20;;;;;;;;;;5053522;28;20453;-77
2022/06/13 05:48:27;;;;;;;6.13;4.23;;;;;;;;;;5053874;28;20444;-77
2022/06/13 05:50:54;;;;;;;6.60;3.73;;;;;;;;;;5053233;28;20469;-77
2022/06/13 05:53:24;;;;;;;9.50;4.47;;;;;;;;;;5054112;28;20446;-77
2022/06/13 05:55:51;;;;;;;7.27;4.43;;;;;;;;;;5055664;28;20449;-76
2022/06/13 05:58:19;;;;;;;6.27;4.30;;;;;;;;;;5053305;28;20468;-76
2022/06/13 06:00:48;;;;;;;7.53;4.00;;;;;;;;;;5053647;28;20465;-76
2022/06/13 06:03:16;;;;;;;10.70;4.47;;;;;;;;;;5051057;28;20908;-77
2022/06/13 06:05:43;;;;;;;4.87;4.13;;;;;;;;;;5049875;28;20539;-77
2022/06/13 06:08:14;;;;;;;7.07;3.97;;;;;;;;;;5054407;28;20507;-76
2022/06/13 06:10:43;;;;;;;6.67;3.90;;;;;;;;;;5053143;28;20540;-77
2022/06/13 06:13:11;;;;;;;5.67;4.00;;;;;;;;;;5054720;28;20445;-77
2022/06/13 06:15:39;;;;;;;4.70;4.13;;;;;;;;;;5060030;28;20866;-77
2022/06/13 06:18:06;;;;;;;5.40;3.77;;;;;;;;;;5059384;28;20929;-77
2022/06/13 06:20:33;;;;;;;6.30;4.27;;;;;;;;;;5061775;28;20489;-77
2022/06/13 06:23:00;;;;;;;6.00;4.17;;;;;;;;;;5063472;28;20808;-76
2022/06/13 06:25:27;;;;;;;8.70;3.70;;;;;;;;;;5056176;28;20449;-78
2022/06/13 06:27:55;;;;;;;6.23;3.40;;;;;;;;;;5054182;28;20843;-77
2022/06/13 06:30:22;;;;;;;6.17;3.90;;;;;;;;;;5054622;28;20461;-78
2022/06/13 06:32:49;;;;;;;4.40;3.60;;;;;;;;;;5053638;28;20446;-77
2022/06/13 06:35:17;;;;;;;7.00;3.37;;;;;;;;;;5053346;28;20503;-77
2022/06/13 06:37:48;;;;;;;5.27;3.77;;;;;;;;;;5054525;28;20496;-77
2022/06/13 06:40:16;;;;;;;4.77;3.57;;;;;;;;;;5054418;28;20576;-77
2022/06/13 06:42:43;;;;;;;6.77;3.80;;;;;;;;;;5053719;28;20865;-76
2022/06/13 06:45:11;;;;;;;5.07;3.40;;;;;;;;;;5053114;28;21121;-76
2022/06/13 06:47:39;;;;;;;8.17;3.60;;;;;;;;;;5052397;28;20905;-77
2022/06/13 06:50:06;;;;;;;5.20;3.67;;;;;;;;;;5052604;28;20468;-76
2022/06/13 06:52:33;;;;;;;3.77;3.40;;;;;;;;;;5051764;28;20446;-77
2022/06/13 07:00:31;;;;;;;5.90;3.50;;;;;;;;;;5052452;28;20794;-77
2022/06/13 07:02:58;;;;;;;5.57;2.90;;;;;;;;;;5051880;28;20465;-76
2022/06/13 07:05:25;;;;;;;4.87;3.23;;;;;;;;;;5054196;28;20491;-77
2022/06/13 07:07:52;;;;;;;6.47;3.60;;;;;;;;;;5051992;28;20454;-77
2022/06/13 07:10:20;;;;;;;4.70;2.87;;;;;;;;;;5051938;28;20461;-76
2022/06/13 07:12:47;;;;;;;6.23;3.30;;;;;;;;;;5051816;28;20536;-77
2022/06/13 07:15:15;;;;;;;4.20;3.40;;;;;;;;;;5052309;28;20433;-77
2022/06/13 07:17:43;;;;;;;5.40;3.70;;;;;;;;;;5053981;28;20450;-77
2022/06/13 07:20:11;;;;;;;5.17;4.00;;;;;;;;;;5052161;28;20497;-77
2022/06/13 07:22:38;;;;;;;6.20;3.07;;;;;;;;;;5051361;28;20452;-77
2022/06/13 07:25:08;;;;;;;4.17;3.73;;;;;;;;;;5051955;28;20445;-77
2022/06/13 07:27:35;;;;;;;4.90;3.20;;;;;;;;;;5058617;28;20449;-77
2022/06/13 07:30:02;;;;;;;6.23;3.20;;;;;;;;;;5060331;28;20500;-77
2022/06/13 07:32:29;;;;;;;3.80;3.13;;;;;;;;;;5054973;28;20507;-76
2022/06/13 07:35:01;;;;;;;6.57;3.30;;;;;;;;;;5054214;28;20476;-77
2022/06/13 07:40:13;;;;;;;3.97;3.30;;;;;;;;;;5051825;28;20480;-76
2022/06/13 07:42:43;;;;;;;6.73;4.07;;;;;;;;;;5051877;28;20449;-77
2022/06/13 07:45:12;;;;;;;8.40;3.60;;;;;;;;;;5053227;28;20461;-78
2022/06/13 07:47:40;;;;;;;5.53;3.80;;;;;;;;;;5052666;28;20453;-76
2022/06/13 07:50:10;;;;;;;7.80;4.17;;;;;;;;;;5051903;28;20548;-77
2022/06/13 07:52:37;;;;;;;10.67;3.87;;;;;;;;;;5053086;28;20453;-77
2022/06/13 07:55:04;;;;;;;4.10;3.63;;;;;;;;;;5053537;28;20855;-77
2022/06/13 07:57:31;;;;;;;4.93;3.57;;;;;;;;;;5053132;28;20941;-77
2022/06/13 07:59:58;;;;;;;10.33;3.83;;;;;;;;;;5052262;28;20490;-76
2022/06/13 08:02:28;;;;;;;3.67;3.23;;;;;;;;;;5051694;28;20450;-76
2022/06/13 08:04:55;;;;;;;5.57;4.07;;;;;;;;;;5052635;28;20449;-77
2022/06/13 08:07:23;;;;;;;4.73;3.20;;;;;;;;;;5052533;28;20446;-79
2022/06/13 08:09:50;;;;;;;7.37;3.53;;;;;;;;;;5053367;28;20518;-78
2022/06/13 08:12:19;;;;;;;5.90;4.57;;;;;;;;;;5051347;28;20449;-78
2022/06/13 08:14:47;;;;;;;6.90;4.00;;;;;;;;;;5051047;28;20499;-76
2022/06/13 08:17:15;;;;;;;3.70;3.40;;;;;;;;;;5050831;28;20921;-78
2022/06/13 08:19:42;;;;;;;7.90;4.03;;;;;;;;;;5050525;28;20543;-77
2022/06/13 08:22:09;;;;;;;6.10;3.87;;;;;;;;;;5050815;28;20441;-76
2022/06/13 08:24:37;;;;;;;4.97;4.33;;;;;;;;;;5050333;28;20976;-77
2022/06/13 08:27:05;;;;;;;5.40;3.63;;;;;;;;;;5050728;28;20434;-79
2022/06/13 08:29:32;;;;;;;4.03;3.47;;;;;;;;;;5050860;28;20530;-77
2022/06/13 08:31:59;;;;;;;6.50;3.63;;;;;;;;;;5050312;28;20449;-77
2022/06/13 08:34:26;;;;;;;5.43;3.57;;;;;;;;;;5050459;28;20500;-77
2022/06/13 08:36:53;;;;;;;6.23;4.07;;;;;;;;;;5050583;28;20438;-77
2022/06/13 08:39:20;;;;;;;8.13;3.90;;;;;;;;;;5050128;28;20480;-77
2022/06/13 08:41:54;;;;;;;5.37;3.80;;;;;;;;;;5050293;28;20453;-77
2022/06/13 08:44:31;;;;;;;11.63;4.33;;;;;;;;;;5050019;28;20514;-78
2022/06/13 08:47:02;;;;;;;7.20;4.10;;;;;;;;;;5050171;28;20933;-77
2022/06/13 08:49:33;;;;;;;5.93;3.70;;;;;;;;;;5050856;28;20539;-77
2022/06/13 08:52:07;;;;;;;4.63;3.47;;;;;;;;;;5050368;28;20477;-78
2022/06/13 08:54:35;;;;;;;7.63;3.80;;;;;;;;;;5050109;28;20426;-77
2022/06/13 08:57:07;;;;;;;5.10;4.30;;;;;;;;;;5050637;28;20536;-78
2022/06/13 08:59:35;;;;;;;6.00;4.10;;;;;;;;;;5049946;28;20477;-78
2022/06/13 09:02:06;;;;;;;7.67;3.60;;;;;;;;;;5049922;28;20945;-78
2022/06/13 09:04:37;;;;;;;5.33;3.87;;;;;;;;;;5050349;28;20472;-78
2022/06/13 09:07:07;;;;;;;9.60;4.63;;;;;;;;;;5050261;28;20491;-78
2022/06/13 09:09:36;;;;;;;4.43;3.30;;;;;;;;;;5050240;28;20465;-77
2022/06/13 09:12:07;;;;;;;5.50;3.47;;;;;;;;;;5050286;28;20941;-77
2022/06/13 09:14:35;;;;;;;7.20;3.73;;;;;;;;;;5051099;28;20923;-77
2022/06/13 09:17:05;;;;;;;6.03;3.60;;;;;;;;;;5054561;28;20437;-77
2022/06/13 09:19:35;;;;;;;5.67;3.67;;;;;;;;;;5054593;28;20840;-78
2022/06/13 09:22:04;;;;;;;5.97;4.00;;;;;;;;;;5054309;28;20507;-78
2022/06/13 09:24:34;;;;;;;7.43;3.60;;;;;;;;;;5053906;28;20873;-78
2022/06/13 09:27:04;;;;;;;5.50;3.10;;;;;;;;;;5054330;28;20445;-78
2022/06/13 09:29:35;;;;;;;6.93;3.80;;;;;;;;;;5054056;28;20542;-77
2022/06/13 09:32:04;;;;;;;5.87;3.17;;;;;;;;;;5054029;28;20983;-76
2022/06/13 09:34:35;;;;;;;5.27;3.43;;;;;;;;;;5054061;28;20515;-78
2022/06/13 09:37:06;;;;;;;4.00;3.10;;;;;;;;;;5054170;28;20454;-77
2022/06/13 09:39:33;;;;;;;3.50;3.10;;;;;;;;;;5053849;28;20485;-77
2022/06/13 09:42:07;;;;;;;4.70;3.07;;;;;;;;;;5054641;28;20450;-77
2022/06/13 09:44:40;;;;;;;4.63;3.60;;;;;;;;;;5054134;28;20449;-77
2022/06/13 09:47:11;;;;;;;4.10;3.00;;;;;;;;;;5054989;28;21006;-77
2022/06/13 09:49:44;;;;;;;7.40;3.00;;;;;;;;;;5053914;28;20508;-78
2022/06/13 09:52:15;;;;;;;5.70;3.17;;;;;;;;;;5054514;28;20509;-77
2022/06/13 09:54:45;;;;;;;5.83;2.60;;;;;;;;;;5054325;28;20925;-77
2022/06/13 09:57:16;;;;;;;3.77;2.40;;;;;;;;;;5045215;28;20694;-78
2022/06/13 09:59:51;;;;;;;3.40;3.10;;;;;;;;;;5045754;28;20492;-77
2022/06/13 10:02:22;;;;;;;6.47;3.03;;;;;;;;;;5053924;28;20452;-76
2022/06/13 10:04:55;;;;;;;5.00;3.10;;;;;;;;;;5053136;28;20514;-77
2022/06/13 10:07:24;;;;;;;4.30;2.77;;;;;;;;;;5053023;28;20453;-77
2022/06/13 10:09:54;;;;;;;3.53;2.00;;;;;;;;;;5052883;28;20515;-77
2022/06/13 10:12:29;;;;;;;3.00;2.27;;;;;;;;;;5052795;28;20453;-76
2022/06/13 10:15:06;;;;;;;4.70;2.57;;;;;;;;;;5053131;28;20868;-77
2022/06/13 10:17:49;;;;;;;4.10;3.00;;;;;;;;;;5051105;28;20449;-77
2022/06/13 10:20:19;;;;;;;4.07;2.63;;;;;;;;;;5052548;28;20481;-77
2022/06/13 10:22:52;;;;;;;4.30;2.60;;;;;;;;;;5052997;28;20524;-76
2022/06/13 10:25:24;;;;;;;4.33;2.80;;;;;;;;;;5052547;28;20444;-77
2022/06/13 10:27:59;;;;;;;4.00;2.93;;;;;;;;;;5052207;28;20446;-76
2022/06/13 10:30:37;;;;;;;6.10;2.30;;;;;;;;;;5052905;28;20495;-77
2022/06/13 10:33:16;;;;;;;4.37;2.87;;;;;;;;;;5053414;28;20460;-77
2022/06/13 10:35:48;;;;;;;4.77;3.10;;;;;;;;;;5052782;28;20456;-77
2022/06/13 10:38:35;;;;;;;4.97;3.00;;;;;;;;;;5053504;28;20460;-78
2022/06/13 10:41:02;;;;;;;5.53;2.63;;;;;;;;;;5053790;28;20481;-77
2022/06/13 10:43:30;;;;;;;4.53;2.50;;;;;;;;;;5054804;28;20559;-77
2022/06/13 10:45:59;;;;;;;5.23;2.87;;;;;;;;;;5048106;28;20941;-77
2022/06/13 10:48:28;;;;;;;4.70;2.70;;;;;;;;;;5053863;28;20885;-77
2022/06/13 10:50:56;;;;;;;6.17;2.33;;;;;;;;;;5054247;28;20511;-76
2022/06/13 10:53:24;;;;;;;4.13;2.83;;;;;;;;;;5048420;28;20451;-77
2022/06/13 10:55:53;;;;;;;4.37;2.47;;;;;;;;;;5054008;28;20445;-77
2022/06/13 10:58:23;;;;;;;4.13;2.33;;;;;;;;;;5049237;28;20458;-77
2022/06/13 11:01:05;;;;;;;4.93;2.57;;;;;;;;;;5037994;28;20480;-77
2022/06/13 11:03:33;;;;;;;2.53;2.30;;;;;;;;;;5051156;28;20449;-77
2022/06/13 11:06:03;;;;;;;5.33;2.30;;;;;;;;;;5052501;28;20500;-77
2022/06/13 11:08:30;;;;;;;7.03;2.53;;;;;;;;;;5052643;28;20477;-76
2022/06/13 11:10:58;;;;;;;2.80;2.20;;;;;;;;;;5054155;28;21049;-77
2022/06/13 11:13:27;;;;;;;3.33;2.27;;;;;;;;;;5060256;28;20442;-77
2022/06/13 11:24:16;;;;;;;3.53;2.57;;;;;;;;;;5055559;28;20588;-78
2022/06/13 11:29:30;;;;;;;4.27;2.07;;;;;;;;;;5050797;28;20525;-78
2022/06/13 11:31:57;;;;;;;12.17;3.03;;;;;;;;;;5052347;28;20944;-78
2022/06/13 11:34:32;;;;;;;5.00;2.60;;;;;;;;;;5052229;28;20496;-78
2022/06/13 11:37:01;;;;;;;5.47;2.07;;;;;;;;;;5052903;28;20979;-79
2022/06/13 11:39:32;;;;;;;2.70;2.37;;;;;;;;;;5053062;28;20519;-78
2022/06/13 11:42:00;;;;;;;5.70;3.20;;;;;;;;;;5057656;28;20477;-79
2022/06/13 11:44:27;;;;;;;2.93;2.63;;;;;;;;;;5056104;28;20457;-79
2022/06/13 11:46:58;;;;;;;4.50;2.90;;;;;;;;;;5057062;28;20446;-79
2022/06/13 11:49:33;;;;;;;3.10;2.83;;;;;;;;;;5058060;28;20465;-78
2022/06/13 11:52:02;;;;;;;4.73;2.53;;;;;;;;;;5057438;28;20524;-78
2022/06/13 11:54:30;;;;;;;3.50;1.80;;;;;;;;;;5055424;28;20532;-78
2022/06/13 11:57:17;;;;;;;5.40;2.87;;;;;;;;;;5055877;28;20454;-78
2022/06/13 11:59:47;;;;;;;2.80;2.60;;;;;;;;;;5054199;28;20928;-79
2022/06/13 12:02:17;;;;;;;2.87;2.57;;;;;;;;;;5056885;28;20988;-79
2022/06/13 12:04:48;;;;;;;2.40;2.20;;;;;;;;;;5054704;28;20521;-78
2022/06/13 12:07:26;;;;;;;4.10;3.30;;;;;;;;;;5055639;28;20488;-77
2022/06/13 12:09:54;;;;;;;4.30;2.80;;;;;;;;;;5034042;28;20501;-78
2022/06/13 12:12:21;;;;;;;4.27;2.73;;;;;;;;;;5036410;28;20458;-78
2022/06/13 12:14:49;;;;;;;2.73;2.20;;;;;;;;;;5034970;28;20936;-79
2022/06/13 12:17:18;;;;;;;6.23;2.70;;;;;;;;;;5036318;28;20447;-79
2022/06/13 12:19:50;;;;;;;2.67;2.03;;;;;;;;;;5037631;28;20477;-78
2022/06/13 12:22:20;;;;;;;3.70;2.23;;;;;;;;;;5035055;28;20498;-79
2022/06/13 12:24:59;;;;;;;5.10;2.77;;;;;;;;;;5034184;28;20542;-78
2022/06/13 12:27:35;;;;;;;2.53;2.30;;;;;;;;;;5031891;28;20938;-79
2022/06/13 12:30:06;;;;;;;2.67;1.80;;;;;;;;;;5034601;28;20466;-79
2022/06/13 12:32:36;;;;;;;3.17;2.10;;;;;;;;;;5037657;28;20499;-78
2022/06/13 12:35:19;;;;;;;4.13;1.87;;;;;;;;;;5037137;28;20436;-78
2022/06/13 12:37:50;;;;;;;2.10;1.83;;;;;;;;;;5038289;28;20442;-79
2022/06/13 12:40:21;;;;;;;2.43;2.20;;;;;;;;;;5037137;28;20508;-79
2022/06/13 12:42:55;;;;;;;2.00;1.80;;;;;;;;;;5048962;28;20511;-78
2022/06/13 12:45:32;;;;;;;3.70;2.17;;;;;;;;;;5052664;28;20449;-79
2022/06/13 12:48:08;;;;;;;1.80;1.70;;;;;;;;;;5056300;28;20449;-79
2022/06/13 12:50:42;;;;;;;2.73;2.00;;;;;;;;;;5059569;28;20461;-78
2022/06/13 12:53:18;;;;;;;2.13;1.80;;;;;;;;;;5052348;28;20441;-79
2022/06/13 12:55:50;;;;;;;2.77;2.00;;;;;;;;;;5056587;28;20441;-78
2022/06/13 12:58:28;;;;;;;2.73;1.87;;;;;;;;;;5053331;28;20540;-77
2022/06/13 13:00:57;;;;;;;3.00;2.07;;;;;;;;;;5030149;28;21062;-77
2022/06/13 13:03:39;;;;;;;1.80;1.50;;;;;;;;;;5029755;28;20439;-77
2022/06/13 13:06:10;;;;;;;2.97;2.17;;;;;;;;;;5029137;28;20856;-78
2022/06/13 13:08:47;;;;;;;2.53;2.00;;;;;;;;;;5041732;28;20445;-77
2022/06/13 13:11:21;;;;;;;2.90;2.23;;;;;;;;;;5049911;28;20531;-77
2022/06/13 13:13:51;;;;;;;2.80;1.70;;;;;;;;;;5051613;28;20440;-79
2022/06/13 13:16:24;;;;;;;1.93;1.83;;;;;;;;;;5051904;28;20425;-77
2022/06/13 13:18:57;;;;;;;2.87;1.77;;;;;;;;;;5051112;28;20438;-78
2022/06/13 13:21:30;;;;;;;2.30;1.80;;;;;;;;;;5050120;28;20485;-78
2022/06/13 13:24:01;;;;;;;4.67;2.27;;;;;;;;;;5050430;28;20562;-77
2022/06/13 13:26:34;;;;;;;2.50;1.77;;;;;;;;;;5050518;28;20661;-77
2022/06/13 13:29:05;;;;;;;2.77;2.20;;;;;;;;;;5050040;28;20442;-77
2022/06/13 13:31:35;;;;;;;2.60;1.80;;;;;;;;;;5050444;28;20446;-78
2022/06/13 13:34:06;;;;;;;2.30;2.10;;;;;;;;;;5049841;28;20472;-77
2022/06/13 13:36:39;;;;;;;2.17;1.97;;;;;;;;;;5050163;28;20472;-78
2022/06/13 13:39:11;;;;;;;2.90;2.20;;;;;;;;;;5050446;28;20819;-78
2022/06/13 13:41:40;;;;;;;1.80;1.70;;;;;;;;;;5049990;28;20548;-78
2022/06/13 13:44:13;;;;;;;2.90;2.40;;;;;;;;;;5049588;28;20508;-78
2022/06/13 13:46:42;;;;;;;2.53;1.80;;;;;;;;;;5049831;28;20512;-77
2022/06/13 13:49:12;;;;;;;2.47;2.27;;;;;;;;;;5049780;28;20847;-78
2022/06/13 13:51:42;;;;;;;2.70;1.97;;;;;;;;;;5050039;28;20437;-78
2022/06/13 13:54:11;;;;;;;4.33;2.40;;;;;;;;;;5049838;28;20513;-77
2022/06/13 13:56:41;;;;;;;4.17;2.00;;;;;;;;;;5049672;28;20812;-78
2022/06/13 13:59:11;;;;;;;2.43;1.70;;;;;;;;;;5050424;28;20438;-77
2022/06/13 14:01:41;;;;;;;2.40;1.80;;;;;;;;;;5050530;28;20543;-77
2022/06/13 14:04:14;;;;;;;2.10;2.00;;;;;;;;;;5053057;28;20794;-77
2022/06/13 14:06:45;;;;;;;2.10;1.90;;;;;;;;;;5053008;28;20525;-78
2022/06/13 14:09:13;;;;;;;3.73;1.80;;;;;;;;;;5052413;28;20785;-78
2022/06/13 14:11:58;;;;;;;2.07;1.97;;;;;;;;;;5053174;28;20437;-78
2022/06/13 14:14:27;;;;;;;2.17;2.07;;;;;;;;;;5053472;28;20465;-77
2022/06/13 14:16:56;;;;;;;2.23;2.03;;;;;;;;;;5046597;28;21020;-79
2022/06/13 14:19:25;;;;;;;1.73;1.63;;;;;;;;;;5053128;28;20479;-79
2022/06/13 14:22:16;;;;;;;2.07;1.97;;;;;;;;;;5052428;28;20536;-78
2022/06/13 14:24:49;;;;;;;5.57;1.70;;;;;;;;;;5028955;28;20950;-78
2022/06/13 14:27:17;;;;;;;3.53;2.20;;;;;;;;;;5052727;28;20445;-77
2022/06/13 14:29:46;;;;;;;3.17;2.17;;;;;;;;;;5052785;28;20470;-77
2022/06/13 14:32:15;;;;;;;3.70;2.13;;;;;;;;;;5053737;28;20446;-79
2022/06/13 14:37:29;;;;;;;3.73;1.90;;;;;;;;;;5054694;28;20535;-78
2022/06/13 14:39:59;;;;;;;2.13;1.67;;;;;;;;;;5055376;28;20520;-79
2022/06/13 14:42:35;;;;;;;2.30;1.90;;;;;;;;;;5053933;28;20853;-79
2022/06/13 14:45:03;;;;;;;2.57;1.60;;;;;;;;;;5054328;28;20445;-78
2022/06/13 14:47:49;;;;;;;2.00;1.80;;;;;;;;;;5053240;28;20560;-78
2022/06/13 14:50:38;;;;;;;2.37;2.03;;;;;;;;;;5049169;28;20516;-78
2022/06/13 14:53:20;;;;;;;3.60;2.10;;;;;;;;;;5047280;28;20949;-79
2022/06/13 14:56:18;;;;;;;1.90;1.70;;;;;;;;;;5044697;28;20847;-79
2022/06/13 14:58:58;;;;;;;2.47;1.87;;;;;;;;;;5054431;28;20438;-78
2022/06/13 15:01:26;;;;;;;2.23;1.80;;;;;;;;;;5052824;28;20492;-78
2022/06/13 15:04:20;;;;;;;2.03;1.80;;;;;;;;;;5052439;28;20472;-78
2022/06/13 15:07:09;;;;;;;3.70;1.90;;;;;;;;;;5008397;28;20545;-79
2022/06/13 15:09:38;;;;;;;2.20;2.10;;;;;;;;;;5046877;28;20473;-79
2022/06/13 15:12:10;;;;;;;3.90;1.97;;;;;;;;;;5052075;28;20541;-78
2022/06/13 15:14:40;;;;;;;2.80;1.77;;;;;;;;;;5052228;28;20437;-78
2022/06/13 15:17:08;;;;;;;3.23;1.87;;;;;;;;;;5043922;28;20442;-78
2022/06/13 15:19:37;;;;;;;3.00;1.90;;;;;;;;;;5044705;28;20527;-79
2022/06/13 15:22:05;;;;;;;3.07;2.20;;;;;;;;;;5051883;28;20539;-77
2022/06/13 15:24:44;;;;;;;2.30;2.10;;;;;;;;;;5051754;28;20446;-79
2022/06/13 15:27:12;;;;;;;2.27;2.07;;;;;;;;;;5051802;28;20686;-78
2022/06/13 15:29:39;;;;;;;2.53;2.00;;;;;;;;;;5050875;28;20511;-78
2022/06/13 15:32:20;;;;;;;2.83;2.23;;;;;;;;;;5048079;28;20434;-79